Terminal Aerodrome Forecast
Issued by NWS Cleveland, OH

Home | Current Version | Previous Version | Graphics & Text | Print | Product List | Glossary On
Versions: 1 2 3 4 5 6 7 8 9 10 11 12 13 14 15 16 17 18 19 20 21 22 23 24 25 26
339
FTUS41 KCLE 270540
TAFERI
TAF
KERI 270540Z 2706/2806 18015G22KT P6SM -SHRA SCT025 OVC060
      TEMPO 2706/2708 5SM -SHRA BR OVC025
     FM270800 18008KT P6SM SCT015 OVC060
     FM271500 23010KT P6SM BKN020
     FM271800 23010KT P6SM BKN050
     FM280000 VRB03KT P6SM OVC100=

USA.gov is the U.S. government's official web portal to all federal, state and local government web resources and services.